Time;durP1;ratioP1;P1;durP2;ratioP2;P2;SDS_P1;SDS_P2;PMS_P1;PMS_P2;Temp;Humidity;BMP_temperature;BMP_pressure;BME280_temperature;BME280_humidity;BME280_pressure;Samples;Min_cycle;Max_cycle;Signal;HPM_P1;HPM_P2
2021/05/16 00:00:26;;;;;;;0.20;0.20;;;13.30;81.40;;;;;;5088871;28;20040;-67
2021/05/16 00:02:53;;;;;;;0.35;0.35;;;13.30;81.40;;;;;;5087251;28;20119;-69
2021/05/16 00:05:22;;;;;;;0.30;0.30;;;13.20;81.90;;;;;;5089459;28;20419;-69
2021/05/16 00:07:49;;;;;;;0.30;0.30;;;13.20;82.80;;;;;;5088713;28;20110;-69
2021/05/16 00:10:18;;;;;;;0.20;0.20;;;13.10;83.20;;;;;;5089028;28;20185;-69
2021/05/16 00:12:44;;;;;;;0.25;0.25;;;13.00;83.30;;;;;;5088782;28;20052;-68
2021/05/16 00:15:14;;;;;;;0.30;0.30;;;13.00;83.20;;;;;;5088546;28;20056;-68
2021/05/16 00:17:41;;;;;;;0.30;0.30;;;13.00;83.20;;;;;;5088881;28;20120;-68
2021/05/16 00:20:11;;;;;;;0.28;0.28;;;13.00;83.30;;;;;;5088850;28;20050;-68
2021/05/16 00:22:38;;;;;;;0.40;0.40;;;13.00;83.30;;;;;;5088716;28;20056;-68
2021/05/16 00:25:08;;;;;;;0.20;0.20;;;13.00;83.80;;;;;;5088660;28;20071;-67
2021/05/16 00:27:35;;;;;;;0.27;0.27;;;13.00;83.70;;;;;;5088549;28;20108;-69
2021/05/16 00:30:05;;;;;;;0.20;0.20;;;12.90;84.00;;;;;;5088386;28;20527;-68
2021/05/16 00:32:31;;;;;;;0.20;0.20;;;12.90;84.00;;;;;;5088453;28;20108;-68
2021/05/16 00:34:57;;;;;;;0.30;0.30;;;12.90;84.10;;;;;;5087892;28;20136;-68
2021/05/16 00:37:24;;;;;;;0.20;0.20;;;12.80;85.30;;;;;;5087906;28;20419;-68
2021/05/16 00:39:50;;;;;;;0.20;0.20;;;12.80;84.70;;;;;;5088468;28;20044;-68
2021/05/16 00:42:16;;;;;;;0.20;0.20;;;12.70;84.80;;;;;;5088014;28;20127;-68
2021/05/16 00:45:16;;;;;;;0.20;0.20;;;12.80;84.60;;;;;;5088259;28;20048;-68
2021/05/16 00:47:53;;;;;;;0.20;0.20;;;12.70;85.00;;;;;;5064065;28;20101;-68
2021/05/16 00:50:22;;;;;;;0.30;0.30;;;12.70;84.90;;;;;;5065409;28;20127;-68
2021/05/16 00:52:49;;;;;;;0.20;0.20;;;12.80;84.70;;;;;;5065157;28;20052;-68
2021/05/16 00:55:17;;;;;;;0.20;0.20;;;12.80;84.50;;;;;;5065738;28;20052;-68
2021/05/16 00:57:43;;;;;;;0.20;0.20;;;12.80;84.30;;;;;;5065142;28;20049;-68
2021/05/16 01:00:15;;;;;;;0.17;0.17;;;12.90;84.10;;;;;;5065190;28;20053;-68
2021/05/16 01:02:43;;;;;;;0.20;0.20;;;13.00;84.10;;;;;;5065541;28;20484;-68
2021/05/16 01:05:13;;;;;;;0.20;0.20;;;13.00;84.00;;;;;;5064179;28;20048;-68
2021/05/16 01:07:40;;;;;;;0.20;0.20;;;13.00;84.00;;;;;;5064262;28;20131;-68
2021/05/16 01:10:09;;;;;;;0.10;0.10;;;13.00;84.00;;;;;;5065038;28;20549;-68
2021/05/16 01:12:56;;;;;;;0.30;0.30;;;13.00;83.70;;;;;;5064167;28;20171;-68
2021/05/16 01:15:25;;;;;;;0.20;0.20;;;13.00;84.00;;;;;;5064685;28;20536;-68
2021/05/16 01:17:52;;;;;;;0.30;0.30;;;13.00;84.00;;;;;;5064411;28;20917;-68
2021/05/16 01:20:27;;;;;;;0.10;0.10;;;13.00;84.90;;;;;;5063725;28;20048;-68
2021/05/16 01:22:58;;;;;;;0.30;0.30;;;13.00;84.00;;;;;;5071063;28;20585;-68
2021/05/16 01:25:27;;;;;;;;;;;12.90;84.00;;;;;;5072905;28;20064;-68
2021/05/16 01:27:54;;;;;;;0.30;0.30;;;13.00;84.30;;;;;;5076016;28;19924;-68
2021/05/16 01:30:21;;;;;;;0.30;0.30;;;12.90;84.00;;;;;;5085291;28;20580;-68
2021/05/16 01:32:49;;;;;;;0.20;0.20;;;12.90;85.40;;;;;;5088543;28;20055;-68
2021/05/16 01:35:16;;;;;;;0.20;0.20;;;12.90;84.60;;;;;;5086452;28;20112;-68
2021/05/16 01:37:42;;;;;;;0.20;0.20;;;12.90;84.40;;;;;;5086333;28;20044;-68
2021/05/16 01:40:09;;;;;;;0.20;0.20;;;12.90;84.70;;;;;;5087459;28;20044;-68
2021/05/16 01:42:39;;;;;;;0.20;0.20;;;12.80;84.70;;;;;;5087130;28;20151;-68
2021/05/16 01:45:11;;;;;;;0.30;0.30;;;12.80;84.70;;;;;;5087070;28;20508;-68
2021/05/16 01:47:37;;;;;;;0.10;0.10;;;12.80;84.90;;;;;;5083450;28;20051;-68
2021/05/16 01:50:10;;;;;;;0.20;0.20;;;12.80;84.70;;;;;;5075043;28;20071;-68
2021/05/16 01:52:39;;;;;;;0.20;0.20;;;12.80;85.20;;;;;;5076212;28;20134;-68
2021/05/16 01:55:06;;;;;;;0.20;0.20;;;12.70;85.00;;;;;;5086864;28;20451;-69
2021/05/16 01:57:33;;;;;;;0.20;0.20;;;12.70;85.20;;;;;;5086954;28;20515;-68
2021/05/16 01:59:59;;;;;;;0.10;0.10;;;12.70;85.40;;;;;;5086256;28;20044;-69
2021/05/16 02:02:26;;;;;;;0.20;0.20;;;12.70;85.30;;;;;;5094388;28;20044;-69
2021/05/16 02:04:53;;;;;;;0.25;0.25;;;12.70;85.70;;;;;;5087436;28;20431;-69
2021/05/16 02:07:20;;;;;;;0.20;0.20;;;12.60;85.90;;;;;;5087080;28;20059;-69
2021/05/16 02:09:47;;;;;;;0.10;0.10;;;12.60;86.70;;;;;;5074424;28;20521;-68
2021/05/16 02:12:17;;;;;;;0.20;0.20;;;12.60;85.70;;;;;;5085972;28;20052;-68
2021/05/16 02:14:44;;;;;;;0.27;0.27;;;12.70;85.70;;;;;;5091664;28;20185;-69
2021/05/16 02:17:13;;;;;;;0.20;0.20;;;12.60;85.90;;;;;;5092613;28;21065;-68
2021/05/16 02:19:40;;;;;;;0.25;0.25;;;12.60;86.40;;;;;;5094634;28;20193;-69
2021/05/16 02:22:07;;;;;;;0.20;0.20;;;12.50;86.50;;;;;;5094380;28;20423;-70
2021/05/16 02:24:33;;;;;;;0.20;0.20;;;12.50;86.50;;;;;;5094165;28;20044;-69
2021/05/16 02:27:00;;;;;;;0.20;0.20;;;12.50;86.30;;;;;;5094372;28;20181;-69
2021/05/16 02:29:28;;;;;;;0.10;0.10;;;12.50;86.50;;;;;;5092614;28;20157;-69
2021/05/16 02:31:55;;;;;;;0.17;0.17;;;12.50;86.30;;;;;;5094599;28;20089;-69
2021/05/16 02:34:22;;;;;;;0.20;0.20;;;12.50;86.40;;;;;;5093796;28;20134;-69
2021/05/16 02:36:49;;;;;;;0.10;0.10;;;12.50;86.50;;;;;;5093560;28;20040;-72
2021/05/16 02:39:16;;;;;;;0.20;0.20;;;12.50;86.70;;;;;;5094126;28;20124;-69
2021/05/16 02:41:42;;;;;;;0.10;0.10;;;12.50;86.50;;;;;;5093630;28;20044;-69
2021/05/16 02:44:09;;;;;;;0.20;0.20;;;12.60;86.40;;;;;;5092789;28;20126;-69
2021/05/16 02:46:37;;;;;;;0.20;0.20;;;12.50;86.50;;;;;;5092342;28;20052;-69
2021/05/16 02:49:04;;;;;;;0.20;0.20;;;12.60;86.30;;;;;;5093975;28;20079;-69
2021/05/16 02:51:30;;;;;;;0.20;0.20;;;12.60;86.20;;;;;;5093538;28;20277;-69
2021/05/16 02:53:56;;;;;;;0.10;0.10;;;12.60;86.10;;;;;;5093444;28;20127;-69
2021/05/16 02:56:23;;;;;;;0.17;0.17;;;12.60;86.10;;;;;;5093774;28;20068;-69
2021/05/16 02:58:49;;;;;;;0.30;0.30;;;12.60;86.00;;;;;;5093552;28;20040;-69
2021/05/16 03:01:16;;;;;;;0.20;0.20;;;12.60;86.00;;;;;;5093869;28;20075;-69
2021/05/16 03:03:42;;;;;;;0.10;0.10;;;12.70;86.10;;;;;;5088996;28;20055;-69
2021/05/16 03:06:08;;;;;;;0.20;0.20;;;12.70;85.90;;;;;;5093971;28;20072;-69
2021/05/16 03:08:35;;;;;;;0.20;0.20;;;12.70;86.00;;;;;;5093657;28;20184;-69
2021/05/16 03:11:01;;;;;;;0.10;0.10;;;12.70;86.60;;;;;;5093676;28;20052;-67
2021/05/16 03:13:28;;;;;;;0.13;0.13;;;12.60;86.50;;;;;;5087219;28;20051;-69
2021/05/16 03:15:55;;;;;;;0.20;0.20;;;12.60;86.50;;;;;;5092038;28;20154;-69
2021/05/16 03:18:21;;;;;;;0.10;0.10;;;12.60;86.60;;;;;;5094381;28;20044;-69
2021/05/16 03:20:48;;;;;;;0.10;0.10;;;12.60;86.50;;;;;;5094065;28;20051;-69
2021/05/16 03:23:15;;;;;;;0.20;0.20;;;12.60;86.50;;;;;;5083117;28;20040;-69
2021/05/16 03:25:41;;;;;;;0.00;0.00;;;12.60;86.30;;;;;;5093854;28;20514;-69
2021/05/16 03:28:07;;;;;;;0.20;0.20;;;12.70;86.30;;;;;;5093855;28;20048;-69
2021/05/16 03:30:34;;;;;;;0.20;0.20;;;12.70;86.30;;;;;;5093622;28;20085;-69
2021/05/16 03:33:00;;;;;;;0.20;0.20;;;12.70;86.10;;;;;;5094071;28;20044;-69
2021/05/16 03:35:27;;;;;;;0.20;0.20;;;12.70;86.20;;;;;;5093681;28;20056;-69
2021/05/16 03:37:53;;;;;;;0.10;0.10;;;12.70;86.10;;;;;;5093511;28;20078;-69
2021/05/16 03:40:20;;;;;;;0.20;0.20;;;12.70;86.00;;;;;;5093731;28;20044;-69
2021/05/16 03:42:47;;;;;;;0.10;0.10;;;12.80;86.00;;;;;;5093718;28;20048;-69
2021/05/16 03:45:13;;;;;;;0.10;0.10;;;12.80;85.80;;;;;;5094005;28;20040;-69
2021/05/16 03:47:40;;;;;;;0.10;0.10;;;12.80;85.70;;;;;;5080274;28;20078;-69
2021/05/16 03:50:09;;;;;;;0.10;0.10;;;12.80;85.60;;;;;;5093175;28;20055;-69
2021/05/16 03:52:35;;;;;;;0.05;0.05;;;12.80;85.70;;;;;;5093470;28;20071;-69
2021/05/16 03:55:02;;;;;;;0.20;0.20;;;12.80;85.60;;;;;;5093451;28;20052;-69
2021/05/16 03:57:28;;;;;;;0.20;0.20;;;12.80;85.50;;;;;;5079022;28;20056;-69
2021/05/16 03:59:54;;;;;;;0.10;0.10;;;12.80;85.30;;;;;;5093738;28;20080;-69
2021/05/16 04:02:21;;;;;;;0.10;0.10;;;12.80;85.30;;;;;;5093197;28;20583;-69
2021/05/16 04:04:47;;;;;;;0.13;0.13;;;12.90;85.20;;;;;;5093492;28;20150;-69
2021/05/16 04:07:13;;;;;;;0.10;0.10;;;12.80;85.20;;;;;;5093177;28;20054;-69
2021/05/16 04:09:40;;;;;;;0.15;0.15;;;12.80;85.10;;;;;;5093191;28;20507;-69
2021/05/16 04:12:06;;;;;;;0.13;0.13;;;12.80;85.00;;;;;;5093145;28;20059;-69
2021/05/16 04:14:34;;;;;;;0.10;0.10;;;12.80;84.90;;;;;;5093197;28;20054;-69
2021/05/16 04:17:00;;;;;;;0.10;0.10;;;12.90;85.00;;;;;;5093177;28;20134;-69
2021/05/16 04:19:26;;;;;;;0.10;0.10;;;12.80;85.80;;;;;;5093064;28;20126;-69
2021/05/16 04:21:53;;;;;;;0.10;0.10;;;12.80;84.90;;;;;;5093045;28;20047;-69
2021/05/16 04:24:20;;;;;;;0.10;0.10;;;12.90;84.80;;;;;;5093189;28;20058;-69
2021/05/16 04:26:46;;;;;;;0.10;0.10;;;12.90;84.80;;;;;;5092850;28;20506;-69
2021/05/16 04:29:12;;;;;;;0.10;0.10;;;12.90;84.70;;;;;;5093144;28;20553;-69
2021/05/16 04:31:39;;;;;;;0.10;0.10;;;12.90;84.70;;;;;;5092772;28;20135;-69
2021/05/16 04:34:05;;;;;;;0.10;0.10;;;12.90;84.60;;;;;;5092607;28;20068;-69
2021/05/16 04:36:31;;;;;;;0.10;0.10;;;12.90;84.50;;;;;;5092341;28;20048;-69
2021/05/16 04:38:58;;;;;;;0.10;0.10;;;12.90;84.50;;;;;;5091917;28;20377;-69
2021/05/16 04:41:24;;;;;;;0.22;0.22;;;12.90;84.40;;;;;;5092689;28;20070;-69
2021/05/16 04:43:50;;;;;;;0.20;0.20;;;12.90;84.40;;;;;;5092861;28;20127;-69
2021/05/16 04:46:17;;;;;;;0.10;0.10;;;12.90;84.30;;;;;;5092070;28;20181;-69
2021/05/16 04:48:43;;;;;;;0.10;0.10;;;12.90;84.30;;;;;;5092521;28;20571;-69
2021/05/16 04:51:09;;;;;;;0.10;0.10;;;12.90;84.20;;;;;;5092481;28;20150;-69
2021/05/16 04:53:36;;;;;;;0.20;0.20;;;12.90;84.10;;;;;;5089786;28;20134;-69
2021/05/16 04:56:04;;;;;;;0.10;0.10;;;12.90;84.00;;;;;;5092675;28;20101;-69
2021/05/16 04:58:31;;;;;;;0.00;0.00;;;13.00;84.00;;;;;;5092537;28;20096;-69
2021/05/16 05:00:58;;;;;;;0.10;0.10;;;13.00;84.00;;;;;;5092206;28;20508;-69
2021/05/16 05:03:24;;;;;;;0.20;0.20;;;12.90;84.00;;;;;;5092314;28;20047;-69
2021/05/16 05:05:54;;;;;;;0.10;0.10;;;12.90;84.00;;;;;;5092033;28;20044;-69
2021/05/16 05:08:22;;;;;;;0.10;0.10;;;13.00;84.00;;;;;;5092426;28;20146;-70
2021/05/16 05:10:49;;;;;;;0.10;0.10;;;12.90;84.00;;;;;;5091649;28;20487;-70
2021/05/16 05:13:15;;;;;;;0.20;0.20;;;12.90;83.90;;;;;;5092466;28;20504;-69
2021/05/16 05:15:41;;;;;;;0.10;0.10;;;13.00;84.00;;;;;;5091908;28;20590;-69
2021/05/16 05:18:08;;;;;;;0.10;0.10;;;13.00;84.00;;;;;;5092179;28;20055;-69
2021/05/16 05:20:35;;;;;;;0.20;0.20;;;13.00;84.90;;;;;;5091845;28;20563;-69
2021/05/16 05:23:01;;;;;;;0.20;0.20;;;13.00;83.80;;;;;;5092329;28;20054;-69
2021/05/16 05:25:28;;;;;;;0.20;0.20;;;13.00;83.70;;;;;;5092264;28;20082;-69
2021/05/16 05:27:56;;;;;;;0.10;0.10;;;13.00;83.60;;;;;;5092111;28;20170;-69
2021/05/16 05:30:24;;;;;;;0.20;0.20;;;13.00;83.60;;;;;;5092325;28;20193;-69
2021/05/16 05:32:50;;;;;;;0.10;0.10;;;13.10;83.50;;;;;;5091576;28;20054;-69
2021/05/16 05:35:17;;;;;;;0.00;0.00;;;13.10;83.50;;;;;;5091858;28;20051;-69
2021/05/16 05:37:43;;;;;;;0.20;0.20;;;13.10;83.40;;;;;;5091265;28;20048;-69
2021/05/16 05:40:11;;;;;;;0.10;0.10;;;13.10;83.30;;;;;;5091580;28;20537;-68
2021/05/16 05:42:37;;;;;;;0.10;0.10;;;13.20;83.20;;;;;;5091004;28;20100;-69
2021/05/16 05:45:09;;;;;;;0.10;0.10;;;13.20;83.10;;;;;;5091721;28;20109;-69
2021/05/16 05:47:36;;;;;;;0.10;0.10;;;13.10;83.00;;;;;;5091352;28;20059;-69
2021/05/16 05:50:04;;;;;;;0.17;0.17;;;13.10;83.00;;;;;;5091936;28;20078;-69
2021/05/16 05:52:31;;;;;;;0.10;0.10;;;13.10;83.00;;;;;;5096081;28;20099;-69
2021/05/16 05:54:57;;;;;;;0.10;0.10;;;13.20;82.90;;;;;;5096061;28;20127;-69
2021/05/16 05:57:23;;;;;;;0.13;0.13;;;13.20;82.90;;;;;;5095854;28;20131;-69
2021/05/16 05:59:50;;;;;;;0.10;0.10;;;13.20;82.70;;;;;;5096087;28;20131;-69
2021/05/16 06:02:16;;;;;;;0.13;0.13;;;13.20;82.60;;;;;;5095533;28;20051;-69
2021/05/16 06:04:42;;;;;;;0.10;0.10;;;13.20;82.70;;;;;;5095644;28;20518;-69
2021/05/16 06:07:09;;;;;;;0.10;0.10;;;13.20;82.50;;;;;;5095631;28;20166;-69
2021/05/16 06:09:36;;;;;;;0.10;0.10;;;13.30;82.50;;;;;;5095713;28;20051;-69
2021/05/16 06:12:05;;;;;;;0.10;0.10;;;13.20;82.30;;;;;;5095729;28;20055;-69
2021/05/16 06:14:33;;;;;;;0.10;0.10;;;13.30;82.40;;;;;;5081786;28;20048;-69
2021/05/16 06:16:59;;;;;;;0.10;0.10;;;13.30;82.20;;;;;;5095636;28;20491;-69
2021/05/16 06:19:26;;;;;;;0.20;0.20;;;13.30;82.00;;;;;;5095256;28;20120;-69
2021/05/16 06:21:52;;;;;;;0.10;0.10;;;13.30;82.00;;;;;;5095506;28;20543;-69
2021/05/16 06:24:18;;;;;;;0.10;0.10;;;13.30;82.00;;;;;;5095231;28;20201;-69
2021/05/16 06:26:46;;;;;;;0.17;0.17;;;13.40;82.00;;;;;;5095412;28;20082;-69
2021/05/16 06:29:13;;;;;;;0.10;0.10;;;13.40;81.50;;;;;;5095370;28;20052;-69
2021/05/16 06:31:42;;;;;;;0.13;0.13;;;13.50;81.50;;;;;;5095086;28;20503;-69
2021/05/16 06:34:08;;;;;;;0.10;0.10;;;13.50;81.30;;;;;;5094978;28;20083;-69
2021/05/16 06:36:35;;;;;;;0.10;0.10;;;13.60;81.20;;;;;;5095031;28;20506;-69
2021/05/16 06:39:05;;;;;;;0.20;0.20;;;13.60;81.10;;;;;;5094930;28;20040;-69
2021/05/16 06:41:31;;;;;;;0.10;0.10;;;13.70;80.70;;;;;;5094963;28;20123;-69
2021/05/16 06:43:59;;;;;;;0.10;0.10;;;13.80;80.30;;;;;;5095203;28;20082;-69
2021/05/16 06:46:27;;;;;;;0.10;0.10;;;13.90;79.90;;;;;;5094609;28;20085;-69
2021/05/16 06:48:54;;;;;;;0.20;0.20;;;13.90;79.60;;;;;;5094734;28;20499;-69
2021/05/16 06:51:21;;;;;;;0.10;0.10;;;13.90;79.50;;;;;;5094651;28;20048;-69
2021/05/16 06:53:48;;;;;;;0.15;0.15;;;14.00;79.30;;;;;;5094797;28;20135;-69
2021/05/16 06:56:15;;;;;;;0.10;0.10;;;14.00;78.90;;;;;;5094994;28;20114;-69
2021/05/16 06:58:42;;;;;;;0.10;0.10;;;14.10;78.90;;;;;;5094395;28;20177;-69
2021/05/16 07:01:09;;;;;;;0.13;0.13;;;14.10;78.50;;;;;;5094599;28;20118;-69
2021/05/16 07:03:37;;;;;;;0.10;0.10;;;14.10;78.30;;;;;;5093762;28;20186;-69
2021/05/16 07:06:07;;;;;;;0.13;0.13;;;14.20;78.30;;;;;;5094823;28;20044;-69
2021/05/16 07:08:36;;;;;;;0.17;0.17;;;14.20;78.10;;;;;;5094575;28;20055;-69
2021/05/16 07:11:03;;;;;;;0.10;0.10;;;14.20;77.20;;;;;;5094386;28;20056;-69
2021/05/16 07:13:29;;;;;;;0.10;0.10;;;14.20;77.20;;;;;;5094513;28;20105;-69
2021/05/16 07:15:55;;;;;;;0.10;0.10;;;14.30;77.40;;;;;;5094127;28;20127;-69
2021/05/16 07:18:23;;;;;;;0.10;0.10;;;14.40;77.10;;;;;;5094378;28;20052;-69
2021/05/16 07:20:51;;;;;;;0.10;0.10;;;14.60;77.00;;;;;;5094206;28;20123;-69
2021/05/16 07:23:18;;;;;;;0.10;0.10;;;14.70;76.10;;;;;;5094490;28;20036;-69
2021/05/16 07:25:45;;;;;;;0.13;0.13;;;14.80;75.60;;;;;;5094050;28;20044;-69
2021/05/16 07:28:11;;;;;;;0.15;0.15;;;14.90;74.60;;;;;;5094224;28;20177;-69
2021/05/16 07:30:38;;;;;;;0.20;0.20;;;14.90;74.10;;;;;;5094370;28;20079;-69
2021/05/16 07:33:05;;;;;;;0.20;0.20;;;14.90;73.60;;;;;;5094034;28;20129;-69
2021/05/16 07:35:31;;;;;;;0.10;0.10;;;14.90;72.70;;;;;;5093623;28;20052;-68
2021/05/16 07:37:57;;;;;;;0.10;0.10;;;15.00;72.10;;;;;;5093961;28;20100;-69
2021/05/16 07:40:25;;;;;;;0.10;0.10;;;15.00;72.20;;;;;;5093658;28;20118;-69
2021/05/16 07:42:51;;;;;;;0.10;0.10;;;15.20;72.30;;;;;;5093421;28;20434;-69
2021/05/16 07:45:19;;;;;;;0.10;0.10;;;15.20;70.20;;;;;;5093690;28;20043;-69
2021/05/16 07:47:45;;;;;;;0.10;0.10;;;15.10;69.70;;;;;;5093980;28;20080;-69
2021/05/16 07:50:12;;;;;;;0.00;0.00;;;15.10;70.30;;;;;;5079557;28;20499;-69
2021/05/16 07:52:39;;;;;;;0.10;0.10;;;15.10;70.40;;;;;;5093780;28;20044;-69
2021/05/16 07:55:07;;;;;;;0.10;0.10;;;15.20;70.40;;;;;;5093200;28;20047;-69
2021/05/16 07:57:36;;;;;;;0.10;0.10;;;15.50;69.90;;;;;;5093792;28;20048;-69
2021/05/16 08:00:10;;;;;;;0.10;0.10;;;15.60;68.70;;;;;;5093405;28;20192;-69
2021/05/16 08:02:37;;;;;;;0.00;0.00;;;15.80;68.50;;;;;;5093829;28;20127;-69
2021/05/16 08:05:03;;;;;;;0.08;0.08;;;16.00;67.10;;;;;;5092250;28;20682;-69
2021/05/16 08:07:30;;;;;;;0.08;0.08;;;16.10;66.00;;;;;;5093262;28;20169;-69
2021/05/16 08:09:56;;;;;;;0.00;0.00;;;16.30;65.90;;;;;;5093432;28;20098;-69
2021/05/16 08:12:22;;;;;;;0.00;0.00;;;16.70;66.00;;;;;;5093156;28;20052;-69
2021/05/16 08:14:49;;;;;;;0.00;0.00;;;16.90;64.00;;;;;;5089565;28;20094;-69
2021/05/16 08:17:15;;;;;;;0.00;0.00;;;17.00;63.20;;;;;;5093427;28;20055;-69
2021/05/16 08:19:41;;;;;;;0.10;0.10;;;17.00;62.60;;;;;;5087676;28;20072;-69
2021/05/16 08:22:10;;;;;;;0.00;0.00;;;16.90;61.50;;;;;;5092382;28;20066;-69
2021/05/16 08:24:39;;;;;;;0.00;0.00;;;16.90;60.70;;;;;;5093119;28;20086;-69
2021/05/16 08:27:06;;;;;;;0.08;0.08;;;16.90;59.80;;;;;;5091812;28;20040;-69
2021/05/16 08:29:35;;;;;;;0.08;0.08;;;16.70;59.90;;;;;;5079094;28;20193;-69
2021/05/16 08:32:06;;;;;;;0.10;0.10;;;16.80;59.90;;;;;;5073387;28;20135;-69
2021/05/16 08:34:34;;;;;;;0.10;0.10;;;17.10;60.00;;;;;;5076027;28;20586;-69
2021/05/16 08:37:01;;;;;;;0.00;0.00;;;17.40;57.70;;;;;;5085551;28;20084;-69
2021/05/16 08:39:27;;;;;;;0.10;0.10;;;17.90;57.70;;;;;;5089369;28;20100;-69
2021/05/16 08:41:54;;;;;;;0.00;0.00;;;18.30;56.90;;;;;;5090545;28;20127;-69
2021/05/16 08:44:23;;;;;;;0.10;0.10;;;18.70;56.70;;;;;;5086582;28;20056;-69
2021/05/16 08:46:50;;;;;;;0.00;0.00;;;19.20;54.30;;;;;;5085850;28;20044;-69
2021/05/16 08:49:16;;;;;;;0.00;0.00;;;19.80;53.60;;;;;;5092668;28;20078;-69
2021/05/16 08:51:49;;;;;;;0.00;0.00;;;20.30;51.40;;;;;;5092372;28;20492;-69
2021/05/16 08:54:18;;;;;;;0.00;0.00;;;20.70;50.20;;;;;;5090810;28;20044;-71
2021/05/16 08:56:47;;;;;;;;;;;21.10;50.30;;;;;;5075990;28;20041;-70
2021/05/16 08:59:14;;;;;;;0.00;0.00;;;21.50;48.80;;;;;;5071960;28;19920;-71
2021/05/16 09:01:49;;;;;;;0.00;0.00;;;21.90;47.30;;;;;;5088476;28;20495;-71
2021/05/16 09:04:35;;;;;;;0.00;0.00;;;21.80;46.70;;;;;;5083504;28;20051;-70
2021/05/16 09:07:03;;;;;;;0.00;0.00;;;21.50;46.50;;;;;;5091995;28;20048;-70
2021/05/16 09:09:36;;;;;;;0.00;0.00;;;21.40;46.70;;;;;;5087182;28;20121;-72
2021/05/16 09:12:08;;;;;;;0.00;0.00;;;21.30;47.10;;;;;;5074919;28;20047;-72
2021/05/16 09:14:57;;;;;;;0.00;0.00;;;21.50;46.10;;;;;;5072140;28;20564;-70
2021/05/16 09:17:23;;;;;;;0.00;0.00;;;21.40;45.90;;;;;;5076157;28;20481;-70
2021/05/16 09:19:51;;;;;;;0.00;0.00;;;20.90;45.30;;;;;;5074696;28;20095;-70
2021/05/16 09:22:31;;;;;;;0.00;0.00;;;20.30;45.90;;;;;;5073697;28;20044;-69
2021/05/16 09:25:30;;;;;;;0.00;0.00;;;19.40;47.30;;;;;;5079382;28;20352;-70
2021/05/16 09:28:09;;;;;;;0.00;0.00;;;18.70;49.20;;;;;;5091890;28;20044;-70
2021/05/16 09:30:36;;;;;;;0.00;0.00;;;18.00;51.10;;;;;;5092191;28;20119;-68
2021/05/16 09:33:03;;;;;;;0.10;0.00;;;17.60;53.00;;;;;;5091473;28;20040;-69
2021/05/16 09:35:30;;;;;;;0.00;0.00;;;17.30;54.60;;;;;;5091389;28;20471;-70
2021/05/16 09:38:04;;;;;;;0.00;0.00;;;17.10;55.70;;;;;;5091161;28;20067;-69
2021/05/16 09:40:46;;;;;;;0.00;0.00;;;16.90;57.30;;;;;;5091968;28;20093;-70
2021/05/16 09:43:16;;;;;;;0.00;0.00;;;17.10;58.50;;;;;;5091724;28;20036;-70
2021/05/16 09:45:48;;;;;;;0.00;0.00;;;17.40;58.20;;;;;;5092112;28;20048;-71
2021/05/16 09:48:18;;;;;;;0.00;0.00;;;17.60;57.30;;;;;;5090021;28;20050;-70
2021/05/16 09:51:02;;;;;;;0.00;0.00;;;17.60;56.30;;;;;;5091982;28;20169;-69
2021/05/16 09:53:30;;;;;;;0.00;0.00;;;17.50;55.90;;;;;;5091196;28;20044;-69
2021/05/16 09:56:31;;;;;;;0.00;0.00;;;17.30;56.00;;;;;;5091810;28;20051;-69
2021/05/16 09:59:00;;;;;;;0.00;0.00;;;17.00;57.10;;;;;;5068824;28;20037;-69
2021/05/16 10:01:28;;;;;;;0.00;0.00;;;16.70;58.80;;;;;;5069208;28;20123;-68
2021/05/16 10:03:57;;;;;;;0.00;0.00;;;16.60;59.50;;;;;;5068783;28;20182;-69
2021/05/16 10:06:24;;;;;;;0.00;0.00;;;16.30;60.00;;;;;;5051137;28;20064;-70
2021/05/16 10:08:51;;;;;;;0.00;0.00;;;16.20;60.20;;;;;;5067115;28;20045;-69
2021/05/16 10:11:22;;;;;;;0.00;0.00;;;16.60;61.30;;;;;;5068161;28;20041;-69
2021/05/16 10:13:54;;;;;;;0.00;0.00;;;17.50;60.10;;;;;;5068044;28;20053;-65
2021/05/16 10:16:21;;;;;;;0.00;0.00;;;18.60;58.00;;;;;;5055131;28;20552;-64
2021/05/16 10:18:49;;;;;;;0.00;0.00;;;19.50;55.20;;;;;;5067959;28;20428;-60
2021/05/16 12:15:02;;;;;;;0.10;0.10;;;15.90;69.80;;;;;;4846881;28;20065;-68
2021/05/16 12:17:35;;;;;;;0.00;0.00;;;16.00;70.90;;;;;;4853616;29;20515;-69
2021/05/16 12:20:01;;;;;;;;;;;16.10;71.00;;;;;;4854604;29;20049;-70
2021/05/16 12:22:36;;;;;;;0.10;0.10;;;16.10;70.50;;;;;;4861533;29;19928;-70
2021/05/16 12:25:05;;;;;;;0.00;0.00;;;16.20;69.90;;;;;;4856678;29;20052;-71
2021/05/16 12:27:32;;;;;;;0.10;0.10;;;16.20;66.80;;;;;;4857413;29;20097;-72
2021/05/16 12:29:59;;;;;;;0.00;0.00;;;16.20;65.70;;;;;;4856800;29;20062;-71
2021/05/16 12:32:28;;;;;;;0.10;0.10;;;16.20;66.40;;;;;;4856525;29;20053;-71
2021/05/16 12:34:55;;;;;;;0.10;0.10;;;16.20;66.30;;;;;;4864394;29;20089;-70
2021/05/16 12:37:24;;;;;;;0.13;0.13;;;16.20;65.70;;;;;;4857074;29;20065;-70
2021/05/16 12:39:55;;;;;;;0.10;0.10;;;16.30;66.30;;;;;;4856863;29;20553;-71
2021/05/16 12:42:37;;;;;;;0.00;0.00;;;16.30;66.50;;;;;;4857235;29;20057;-71
2021/05/16 12:45:23;;;;;;;0.10;0.10;;;16.30;66.60;;;;;;4857825;29;20880;-72
2021/05/16 12:48:16;;;;;;;0.10;0.10;;;16.40;65.40;;;;;;4860970;29;20099;-71
2021/05/16 12:50:52;;;;;;;0.00;0.00;;;16.50;64.70;;;;;;4844524;29;20403;-71
2021/05/16 12:53:30;;;;;;;0.00;0.00;;;16.60;63.50;;;;;;4838691;29;20168;-71
2021/05/16 12:56:18;;;;;;;0.00;0.00;;;16.70;61.70;;;;;;4838970;29;20085;-71
2021/05/16 13:01:25;;;;;;;0.00;0.00;;;16.80;60.00;;;;;;4838090;29;20079;-71
2021/05/16 13:04:00;;;;;;;0.00;0.00;;;16.90;60.30;;;;;;4838843;29;20466;-71
2021/05/16 13:06:30;;;;;;;0.05;0.05;;;16.90;60.60;;;;;;4838797;29;20234;-71
2021/05/16 13:08:56;;;;;;;0.00;0.00;;;16.90;60.60;;;;;;4838899;29;20106;-71
2021/05/16 13:11:23;;;;;;;0.00;0.00;;;16.80;61.20;;;;;;4857393;29;20482;-72
2021/05/16 13:14:02;;;;;;;0.00;0.00;;;16.70;61.10;;;;;;4861972;29;20166;-71
2021/05/16 13:16:39;;;;;;;0.00;0.00;;;16.60;62.20;;;;;;4867238;29;20095;-71
2021/05/16 13:19:05;;;;;;;0.00;0.00;;;16.50;63.40;;;;;;4875281;29;20053;-71
2021/05/16 13:21:32;;;;;;;0.10;0.10;;;16.40;64.40;;;;;;4858501;29;20141;-71
2021/05/16 13:24:05;;;;;;;0.00;0.00;;;16.30;64.90;;;;;;4851222;29;20046;-71
2021/05/16 13:26:44;;;;;;;0.03;0.03;;;16.30;65.60;;;;;;4838481;29;20054;-72
2021/05/16 13:29:12;;;;;;;0.00;0.00;;;16.30;65.80;;;;;;4838244;29;20068;-72
2021/05/16 13:31:40;;;;;;;0.10;0.10;;;16.30;64.90;;;;;;4837883;29;20207;-72
2021/05/16 13:34:14;;;;;;;0.08;0.08;;;16.30;64.90;;;;;;4838523;29;20581;-72
2021/05/16 13:36:40;;;;;;;0.05;0.05;;;16.30;63.90;;;;;;4838215;29;20076;-72
2021/05/16 13:39:07;;;;;;;0.10;0.10;;;16.30;63.80;;;;;;4838292;29;20061;-71
2021/05/16 13:41:33;;;;;;;0.00;0.00;;;16.40;62.30;;;;;;4838340;29;20165;-71
2021/05/16 13:43:59;;;;;;;0.08;0.08;;;16.40;62.00;;;;;;4838138;29;20060;-71
2021/05/16 13:46:26;;;;;;;0.00;0.00;;;16.40;61.90;;;;;;4852554;29;20054;-71
2021/05/16 13:48:52;;;;;;;0.00;0.00;;;16.40;62.50;;;;;;4856654;29;20058;-71
2021/05/16 13:51:18;;;;;;;0.00;0.00;;;16.40;63.10;;;;;;4856745;29;20061;-71
2021/05/16 13:53:44;;;;;;;0.05;0.05;;;16.30;62.10;;;;;;4855919;29;20137;-71
2021/05/16 13:56:11;;;;;;;0.00;0.00;;;16.30;61.30;;;;;;4855898;29;20060;-71
2021/05/16 13:58:37;;;;;;;0.00;0.00;;;16.30;61.50;;;;;;4855875;29;20061;-71
2021/05/16 14:01:03;;;;;;;0.00;0.00;;;16.30;62.10;;;;;;4856040;29;20545;-71
2021/05/16 14:03:29;;;;;;;0.00;0.00;;;16.30;62.20;;;;;;4855864;29;20106;-71
2021/05/16 14:05:56;;;;;;;0.00;0.00;;;16.20;62.10;;;;;;4855813;29;20505;-71
2021/05/16 14:08:22;;;;;;;0.00;0.00;;;16.10;62.70;;;;;;4855561;29;20062;-72
2021/05/16 14:10:49;;;;;;;0.10;0.10;;;16.10;63.30;;;;;;4855547;29;20179;-71
2021/05/16 14:13:15;;;;;;;0.00;0.00;;;16.00;63.40;;;;;;4857258;29;20049;-71
2021/05/16 14:15:41;;;;;;;0.00;0.00;;;16.00;63.80;;;;;;4863946;29;20120;-72
2021/05/16 14:18:07;;;;;;;0.00;0.00;;;15.90;64.30;;;;;;4867895;29;20198;-72
2021/05/16 14:20:34;;;;;;;0.00;0.00;;;15.90;64.60;;;;;;4850093;29;20061;-71
2021/05/16 14:23:00;;;;;;;0.00;0.00;;;15.90;65.30;;;;;;4859830;29;20057;-71
2021/05/16 14:25:27;;;;;;;0.00;0.00;;;15.90;66.10;;;;;;4859834;29;20098;-72
2021/05/16 14:27:53;;;;;;;0.08;0.08;;;15.80;66.00;;;;;;4857835;29;20049;-72
2021/05/16 14:30:20;;;;;;;0.00;0.00;;;15.70;67.10;;;;;;4859766;29;20084;-72
2021/05/16 14:32:46;;;;;;;0.10;0.10;;;15.70;68.70;;;;;;4859574;29;20057;-72
2021/05/16 14:35:13;;;;;;;0.00;0.00;;;15.70;69.70;;;;;;4859467;29;20061;-72
2021/05/16 14:37:40;;;;;;;0.00;0.00;;;15.80;69.00;;;;;;4859509;29;20085;-72
2021/05/16 14:40:07;;;;;;;0.00;0.00;;;15.80;69.20;;;;;;4859586;29;20054;-71
2021/05/16 14:42:33;;;;;;;0.10;0.10;;;15.80;69.00;;;;;;4859200;29;20105;-71
2021/05/16 14:44:59;;;;;;;0.03;0.03;;;15.90;69.20;;;;;;4859493;29;20682;-72
2021/05/16 14:47:26;;;;;;;0.00;0.00;;;16.00;68.70;;;;;;4859539;29;20163;-72
2021/05/16 14:49:52;;;;;;;0.00;0.00;;;16.00;68.40;;;;;;4842176;29;20148;-72